Time;durP1;ratioP1;P1;durP2;ratioP2;P2;SDS_P1;SDS_P2;PMS_P1;PMS_P2;Temp;Humidity;BMP_temperature;BMP_pressure;BME280_temperature;BME280_humidity;BME280_pressure;Samples;Min_cycle;Max_cycle;Signal;HPM_P1;HPM_P2
2022/01/04 00:02:14;;;;;;;5.32;2.85;;;;;;;9.89;75.69;100016.72;3605926;39;20058;-63
2022/01/04 00:04:40;;;;;;;4.95;2.50;;;;;;;9.90;76.31;100021.13;3608276;39;20047;-63
2022/01/04 00:07:05;;;;;;;4.90;2.53;;;;;;;9.87;76.53;100005.25;3606853;39;20047;-64
2022/01/04 00:09:33;;;;;;;5.97;2.50;;;;;;;9.85;75.78;99998.25;3606723;39;20063;-64
2022/01/04 00:13:20;;;;;;;4.45;2.90;;;;;;;9.48;76.11;99950.78;3603699;39;20079;-64
2022/01/04 00:14:44;;;;;;;4.70;2.50;;;;;;;9.60;76.06;99956.22;3607362;39;20044;-64
2022/01/04 00:17:10;;;;;;;4.07;2.70;;;;;;;9.81;75.78;99989.56;3605293;39;20044;-64
2022/01/04 00:19:36;;;;;;;3.58;2.60;;;;;;;9.80;76.03;99995.94;3604806;39;20070;-64
2022/01/04 00:22:03;;;;;;;7.15;2.65;;;;;;;9.80;76.20;99992.34;3606158;39;20054;-64
2022/01/04 00:24:29;;;;;;;5.55;2.78;;;;;;;9.79;76.97;99980.78;3606330;39;20368;-64
2022/01/04 00:26:54;;;;;;;5.95;2.97;;;;;;;9.78;76.63;99979.06;3605734;39;20055;-64
2022/01/04 00:29:20;;;;;;;8.38;3.15;;;;;;;9.78;76.37;99968.31;3603561;39;20371;-64
2022/01/04 00:31:46;;;;;;;6.15;2.97;;;;;;;9.75;77.23;99957.81;3611000;39;20058;-64
2022/01/04 00:34:11;;;;;;;6.07;2.80;;;;;;;9.74;76.47;99953.41;3604096;39;20173;-63
2022/01/04 00:36:37;;;;;;;5.30;2.83;;;;;;;9.71;76.57;99940.22;3604659;39;20066;-63
2022/01/04 00:39:03;;;;;;;5.00;2.78;;;;;;;9.73;77.24;99933.75;3609139;39;20047;-63
2022/01/04 00:41:29;;;;;;;4.40;3.00;;;;;;;9.72;76.63;99931.19;3605826;39;20043;-64
2022/01/04 00:43:55;;;;;;;6.30;2.83;;;;;;;9.72;76.83;99931.19;3604546;39;20373;-64
2022/01/04 00:46:20;;;;;;;9.15;2.97;;;;;;;9.69;76.89;99928.72;3605503;39;20051;-64
2022/01/04 00:51:30;;;;;;;6.88;3.55;;;;;;;9.62;77.45;99919.41;3605557;39;20091;-63
2022/01/04 00:53:56;;;;;;;7.40;3.30;;;;;;;9.60;77.47;99916.84;3606087;39;20073;-63
2022/01/04 00:56:22;;;;;;;6.75;3.50;;;;;;;9.61;77.56;99917.69;3606067;39;20060;-63
2022/01/04 00:58:47;;;;;;;6.75;3.47;;;;;;;9.60;77.69;99921.34;3608421;39;20305;-63
2022/01/04 01:01:13;;;;;;;8.48;3.47;;;;;;;9.62;77.67;99908.69;3604891;39;20051;-62
2022/01/04 01:03:38;;;;;;;4.45;3.30;;;;;;;9.59;77.70;99904.41;3604072;39;20481;-63
2022/01/04 01:06:04;;;;;;;7.63;3.47;;;;;;;9.58;76.97;99896.44;3608081;39;20298;-63
2022/01/04 01:08:30;;;;;;;8.80;3.90;;;;;;;9.60;77.60;99897.19;3605721;39;20064;-63
2022/01/04 01:10:56;;;;;;;6.60;3.60;;;;;;;9.51;77.76;99888.88;3604308;39;20435;-63
2022/01/04 01:13:22;;;;;;;8.45;3.40;;;;;;;9.53;77.63;99903.00;3596580;39;20051;-62
2022/01/04 01:15:48;;;;;;;8.23;3.47;;;;;;;9.52;77.45;99898.63;3607126;39;20054;-63
2022/01/04 01:18:17;;;;;;;10.30;3.60;;;;;;;9.53;77.96;99899.47;3606501;39;20043;-64
2022/01/04 01:20:47;;;;;;;6.97;3.50;;;;;;;9.42;77.46;99875.22;3606932;39;20062;-63
2022/01/04 01:23:13;;;;;;;11.05;3.88;;;;;;;9.54;77.15;99896.66;3609810;39;20088;-63
2022/01/04 01:25:39;;;;;;;10.05;4.20;;;;;;;9.51;77.02;99890.66;3607287;39;20051;-63
2022/01/04 01:28:05;;;;;;;10.35;4.35;;;;;;;9.54;77.65;99883.25;3606665;39;20065;-63
2022/01/04 01:30:34;;;;;;;7.35;3.78;;;;;;;9.52;77.69;99881.66;3609152;39;20050;-63
2022/01/04 01:33:00;;;;;;;9.02;3.72;;;;;;;9.50;77.76;99880.91;3606799;39;20059;-63
2022/01/04 01:35:25;;;;;;;9.20;4.25;;;;;;;9.49;77.29;99874.69;3605676;39;20059;-63
2022/01/04 01:37:51;;;;;;;9.82;3.88;;;;;;;9.46;77.02;99871.38;3605949;39;20070;-63
2022/01/04 01:40:17;;;;;;;9.63;4.30;;;;;;;9.48;77.66;99870.31;3608841;39;20054;-63
2022/01/04 01:42:42;;;;;;;7.07;4.05;;;;;;;9.50;77.32;99862.13;3605639;39;20044;-63
2022/01/04 01:45:12;;;;;;;9.23;4.30;;;;;;;9.48;77.38;99859.59;3608112;39;20385;-63
2022/01/04 01:47:41;;;;;;;9.73;4.40;;;;;;;9.43;77.15;99855.50;3611288;39;20054;-63
2022/01/04 01:50:08;;;;;;;7.43;4.35;;;;;;;9.46;77.44;99849.94;3609022;39;20043;-63
2022/01/04 01:52:34;;;;;;;9.63;4.50;;;;;;;9.25;77.15;99825.50;3606737;39;20047;-63
2022/01/04 01:55:00;;;;;;;9.15;5.00;;;;;;;9.42;77.16;99849.28;3613159;39;20073;-63
2022/01/04 01:57:25;;;;;;;7.43;4.38;;;;;;;9.43;76.85;99852.84;3608697;39;20047;-63
2022/01/04 01:59:51;;;;;;;9.55;4.40;;;;;;;9.40;76.96;99850.38;3609163;39;20279;-63
2022/01/04 02:02:17;;;;;;;7.93;4.85;;;;;;;9.44;77.47;99863.44;3606730;39;20121;-63
2022/01/04 02:04:43;;;;;;;11.00;4.65;;;;;;;9.46;77.33;99856.13;3608905;39;20123;-63
2022/01/04 02:07:12;;;;;;;10.68;5.05;;;;;;;9.42;77.18;99846.63;3610315;39;20047;-63
2022/01/04 02:09:41;;;;;;;8.45;4.95;;;;;;;9.40;77.43;99840.50;3609489;39;20086;-63
2022/01/04 02:12:09;;;;;;;8.95;4.95;;;;;;;9.40;77.25;99827.09;3606443;39;20370;-63
2022/01/04 02:14:35;;;;;;;8.80;4.90;;;;;;;9.39;76.93;99822.69;3609280;39;20374;-63
2022/01/04 02:17:00;;;;;;;13.90;4.72;;;;;;;9.38;76.90;99823.66;3607845;39;20047;-63
2022/01/04 02:19:26;;;;;;;9.38;4.82;;;;;;;9.38;77.65;99814.75;3609106;39;20392;-63
2022/01/04 02:21:51;;;;;;;10.75;5.15;;;;;;;9.38;77.19;99810.22;3605497;39;20158;-63
2022/01/04 02:24:17;;;;;;;10.60;5.25;;;;;;;9.36;77.64;99805.97;3607421;39;20043;-63
2022/01/04 02:26:42;;;;;;;13.25;5.30;;;;;;;9.37;77.65;99808.53;3605819;39;20047;-63
2022/01/04 02:29:08;;;;;;;10.23;5.18;;;;;;;9.37;76.69;99802.31;3607634;39;20124;-63
2022/01/04 02:31:36;;;;;;;10.23;5.60;;;;;;;9.32;77.09;99797.28;3610571;39;20051;-63
2022/01/04 02:34:02;;;;;;;11.02;5.65;;;;;;;9.35;77.69;99798.88;3606985;39;20128;-63
2022/01/04 02:36:28;;;;;;;9.77;5.40;;;;;;;9.32;77.11;99799.94;3607570;39;20062;-63
2022/01/04 02:38:53;;;;;;;9.55;5.53;;;;;;;9.34;76.93;99798.03;3607170;39;20063;-63
2022/01/04 02:41:20;;;;;;;11.68;5.70;;;;;;;9.34;77.52;99787.28;3607753;39;20052;-63
2022/01/04 02:43:45;;;;;;;9.45;5.35;;;;;;;9.33;76.68;99800.84;3607628;39;20047;-63
2022/01/04 02:46:11;;;;;;;9.02;5.38;;;;;;;9.30;77.59;99791.19;3606278;39;20219;-63
2022/01/04 02:48:43;;;;;;;10.88;5.57;;;;;;;9.27;77.12;99775.31;3611351;39;20055;-63
2022/01/04 02:51:09;;;;;;;15.60;5.32;;;;;;;9.29;76.91;99779.59;3608217;39;20370;-63
2022/01/04 02:53:34;;;;;;;9.18;5.05;;;;;;;9.28;77.24;99777.03;3608843;39;20521;-63
2022/01/04 02:56:00;;;;;;;10.20;5.15;;;;;;;9.30;76.94;99775.09;3605438;39;20047;-63
2022/01/04 02:58:26;;;;;;;12.98;5.57;;;;;;;9.33;76.64;99768.66;3608372;39;20051;-63
2022/01/04 03:00:51;;;;;;;9.98;4.75;;;;;;;9.29;76.28;99763.50;3607817;39;20048;-63
2022/01/04 03:03:17;;;;;;;8.32;4.50;;;;;;;9.27;76.12;99761.91;3607438;39;20058;-64
2022/01/04 03:05:42;;;;;;;8.93;4.88;;;;;;;9.30;76.69;99754.50;3608981;39;20055;-64
2022/01/04 03:08:08;;;;;;;8.95;4.60;;;;;;;9.29;76.68;99752.78;3608374;39;20050;-63
2022/01/04 03:10:35;;;;;;;11.50;4.88;;;;;;;9.26;76.52;99753.00;3606283;39;20317;-64
2022/01/04 03:13:02;;;;;;;6.60;4.20;;;;;;;9.25;76.10;99745.91;3604747;39;20051;-64
2022/01/04 03:15:28;;;;;;;10.00;4.43;;;;;;;9.26;76.88;99733.34;3607159;39;20050;-64
2022/01/04 03:17:54;;;;;;;8.18;5.07;;;;;;;9.26;76.34;99731.56;3604742;39;20177;-63
2022/01/04 03:20:19;;;;;;;11.00;4.78;;;;;;;9.26;76.30;99726.19;3605557;39;20100;-63
2022/01/04 03:22:45;;;;;;;9.88;4.82;;;;;;;9.30;77.11;99721.47;3608351;39;20062;-63
2022/01/04 03:25:11;;;;;;;8.40;4.40;;;;;;;9.25;76.00;99704.84;3596263;39;20507;-64
2022/01/04 03:27:38;;;;;;;7.88;4.45;;;;;;;9.28;76.96;99708.16;3607525;39;20096;-63
2022/01/04 03:30:05;;;;;;;8.07;4.38;;;;;;;9.27;76.86;99705.59;3606177;39;20107;-63
2022/01/04 03:32:31;;;;;;;11.48;5.07;;;;;;;9.22;77.02;99702.38;3605599;39;20263;-63
2022/01/04 03:34:57;;;;;;;10.10;4.65;;;;;;;9.24;76.42;99698.63;3606260;39;20058;-63
2022/01/04 03:37:22;;;;;;;8.70;4.85;;;;;;;9.21;76.86;99684.59;3611895;39;20047;-64
2022/01/04 03:39:48;;;;;;;11.00;4.55;;;;;;;9.20;76.48;99681.06;3608388;39;20054;-63
2022/01/04 03:42:14;;;;;;;8.15;4.72;;;;;;;9.21;76.99;99673.88;3607540;39;20047;-63
2022/01/04 03:44:39;;;;;;;9.60;4.28;;;;;;;9.24;76.64;99670.97;3605735;39;20373;-64
2022/01/04 03:47:05;;;;;;;9.18;4.40;;;;;;;9.19;77.31;99671.28;3606414;39;20050;-64
2022/01/04 03:49:31;;;;;;;8.57;4.47;;;;;;;9.20;76.53;99656.09;3605770;39;20067;-63
2022/01/04 03:51:57;;;;;;;8.10;4.45;;;;;;;9.23;76.37;99647.81;3608467;39;20398;-64
2022/01/04 03:54:23;;;;;;;8.07;4.60;;;;;;;9.21;76.60;99649.75;3608564;39;20039;-64
2022/01/04 03:56:50;;;;;;;10.98;4.82;;;;;;;9.14;76.81;99635.09;3606253;39;20043;-64
2022/01/04 03:59:17;;;;;;;8.93;4.43;;;;;;;9.19;76.89;99638.25;3607211;39;20083;-63
2022/01/04 04:01:42;;;;;;;6.95;4.40;;;;;;;9.20;76.89;99630.13;3605531;39;20059;-64
2022/01/04 04:04:08;;;;;;;9.27;5.13;;;;;;;9.18;76.98;99625.84;3606258;39;20055;-63
2022/01/04 04:06:34;;;;;;;8.52;4.88;;;;;;;9.16;77.48;99623.25;3604762;39;20697;-63
2022/01/04 04:09:00;;;;;;;9.82;5.80;;;;;;;9.16;77.46;99611.69;3610060;39;20055;-64
2022/01/04 04:11:26;;;;;;;10.13;5.78;;;;;;;9.16;76.84;99611.69;3605352;39;20043;-65
2022/01/04 04:13:52;;;;;;;9.48;5.70;;;;;;;9.16;77.68;99619.72;3609183;39;20105;-64
2022/01/04 04:16:18;;;;;;;9.52;6.20;;;;;;;9.07;77.79;99602.53;3605806;39;20124;-64
2022/01/04 04:18:44;;;;;;;9.70;6.00;;;;;;;9.09;77.00;99599.72;3606258;39;20116;-64
2022/01/04 04:21:10;;;;;;;8.05;5.53;;;;;;;9.12;77.37;99600.34;3604751;39;20095;-64
2022/01/04 04:23:36;;;;;;;10.73;5.97;;;;;;;9.04;77.66;99584.84;3606123;39;20117;-64
2022/01/04 04:26:02;;;;;;;10.23;5.68;;;;;;;9.15;77.94;99593.91;3607142;39;20047;-64
2022/01/04 04:28:28;;;;;;;10.73;5.68;;;;;;;9.16;77.82;99587.56;3608862;39;20059;-63
2022/01/04 04:30:55;;;;;;;11.60;5.97;;;;;;;9.16;78.04;99595.59;3610776;39;20061;-63
2022/01/04 04:33:22;;;;;;;11.45;6.00;;;;;;;9.13;77.84;99585.94;3605648;39;20048;-64
2022/01/04 04:35:48;;;;;;;10.20;5.93;;;;;;;9.12;77.27;99589.63;3606729;39;20185;-63
2022/01/04 04:38:14;;;;;;;9.05;5.75;;;;;;;9.10;77.50;99586.19;3604832;39;20437;-63
2022/01/04 04:40:39;;;;;;;13.18;6.15;;;;;;;9.12;77.99;99588.78;3603915;39;20139;-64
2022/01/04 04:43:06;;;;;;;12.27;6.05;;;;;;;9.09;78.04;99583.63;3604966;39;20374;-63
2022/01/04 04:45:31;;;;;;;10.50;6.18;;;;;;;9.08;77.38;99582.78;3604141;39;20305;-64
2022/01/04 04:47:57;;;;;;;13.15;6.55;;;;;;;9.10;77.29;99580.81;3610091;39;20059;-63
2022/01/04 04:50:23;;;;;;;8.98;5.95;;;;;;;9.12;77.97;99580.72;3607407;39;20105;-63
2022/01/04 04:52:49;;;;;;;9.50;6.20;;;;;;;9.10;77.78;99588.00;3612971;39;20066;-64
2022/01/04 04:55:14;;;;;;;13.35;7.15;;;;;;;9.11;77.28;99585.25;3607646;39;20062;-64
2022/01/04 04:57:40;;;;;;;10.73;6.70;;;;;;;9.07;77.70;99586.44;3608162;39;20043;-63
2022/01/04 05:00:09;;;;;;;10.60;6.53;;;;;;;9.06;78.07;99580.22;3608026;39;20676;-64
2022/01/04 05:02:35;;;;;;;10.60;6.22;;;;;;;8.92;77.82;99550.06;3608622;39;20410;-63
2022/01/04 05:05:02;;;;;;;9.40;7.03;;;;;;;9.09;77.78;99579.13;3612506;39;20057;-64
2022/01/04 05:07:27;;;;;;;9.50;6.38;;;;;;;9.12;77.27;99562.81;3611342;39;20058;-63
2022/01/04 05:09:53;;;;;;;9.48;6.75;;;;;;;9.09;77.30;99568.41;3608751;39;20286;-64
2022/01/04 05:12:18;;;;;;;8.77;6.47;;;;;;;9.10;77.40;99577.28;3605984;39;20147;-63
2022/01/04 05:14:46;;;;;;;11.27;6.82;;;;;;;9.06;77.28;99582.88;3606477;39;20127;-64
2022/01/04 05:17:13;;;;;;;11.10;6.50;;;;;;;8.86;77.73;99534.47;3607882;39;20050;-63
2022/01/04 05:19:40;;;;;;;10.35;6.63;;;;;;;9.04;78.29;99563.41;3609157;39;20047;-63
2022/01/04 05:22:06;;;;;;;9.52;7.07;;;;;;;8.92;78.00;99542.88;3609297;39;20112;-63
2022/01/04 05:24:32;;;;;;;8.95;5.97;;;;;;;9.00;77.65;99548.50;3599269;39;20058;-63
2022/01/04 05:26:58;;;;;;;9.30;6.60;;;;;;;9.04;77.42;99552.69;3606596;39;20059;-63
2022/01/04 05:29:23;;;;;;;9.63;6.75;;;;;;;9.05;77.73;99540.13;3610278;39;20042;-63
2022/01/04 05:31:49;;;;;;;10.23;6.85;;;;;;;9.06;78.60;99552.53;3609599;39;20062;-63
2022/01/04 05:34:15;;;;;;;9.00;6.88;;;;;;;9.00;78.22;99543.13;3609985;39;20104;-63
2022/01/04 05:36:40;;;;;;;10.18;7.88;;;;;;;9.02;78.38;99549.25;3609388;39;20058;-64
2022/01/04 05:39:06;;;;;;;13.50;9.00;;;;;;;8.99;79.46;99538.75;3607836;39;20063;-64
2022/01/04 05:41:33;;;;;;;12.35;8.38;;;;;;;8.95;79.01;99523.91;3608712;39;20455;-63
2022/01/04 05:43:59;;;;;;;11.63;8.00;;;;;;;8.87;80.08;99512.03;3606959;39;20394;-63
2022/01/04 05:46:25;;;;;;;12.07;8.23;;;;;;;8.78;79.90;99506.38;3611137;39;20135;-63
2022/01/04 05:48:51;;;;;;;11.07;8.27;;;;;;;8.91;80.25;99516.19;3612104;39;20051;-64
2022/01/04 05:51:16;;;;;;;11.20;8.40;;;;;;;8.89;79.71;99521.69;3605626;39;20047;-64
2022/01/04 05:53:42;;;;;;;10.82;8.32;;;;;;;8.86;79.71;99519.22;3605964;39;20411;-63
2022/01/04 05:56:08;;;;;;;12.73;8.60;;;;;;;8.89;80.01;99524.34;3596698;39;20095;-63
2022/01/04 05:58:33;;;;;;;11.80;8.57;;;;;;;8.85;79.79;99517.53;3607014;39;20443;-63
2022/01/04 06:01:00;;;;;;;9.43;8.43;;;;;;;8.88;80.47;99519.97;3609829;39;20089;-63
2022/01/04 06:03:26;;;;;;;12.00;8.70;;;;;;;8.90;80.48;99520.69;3606393;39;20305;-63
2022/01/04 06:05:53;;;;;;;12.27;9.13;;;;;;;8.90;80.20;99518.03;3608736;39;20055;-62
2022/01/04 06:08:20;;;;;;;12.35;8.82;;;;;;;8.90;81.00;99520.69;3607719;39;20286;-64
2022/01/04 06:10:50;;;;;;;14.43;10.30;;;;;;;8.90;80.56;99507.28;3612065;39;20107;-63
2022/01/04 06:16:00;;;;;;;12.48;10.45;;;;;;;8.85;80.53;99506.81;3605474;39;20144;-63
2022/01/04 06:18:26;;;;;;;13.80;9.77;;;;;;;8.84;81.18;99507.75;3610060;39;20405;-64
2022/01/04 06:20:53;;;;;;;12.27;10.00;;;;;;;8.83;80.70;99504.22;3605597;39;20078;-64
2022/01/04 06:23:19;;;;;;;13.50;10.55;;;;;;;8.81;81.34;99506.16;3607333;39;20051;-64
2022/01/04 06:25:44;;;;;;;17.10;11.02;;;;;;;8.84;80.76;99499.72;3606204;39;20051;-64
2022/01/04 06:28:10;;;;;;;15.50;11.38;;;;;;;8.82;81.11;99490.97;3607366;39;20116;-63
2022/01/04 06:30:36;;;;;;;13.20;10.60;;;;;;;8.76;81.64;99486.91;3603373;39;20051;-63
2022/01/04 06:33:01;;;;;;;16.63;10.93;;;;;;;8.78;81.42;99500.19;3605867;39;20066;-63
2022/01/04 06:35:29;;;;;;;13.55;10.68;;;;;;;8.77;81.24;99493.97;3607448;39;20051;-63
2022/01/04 06:37:55;;;;;;;13.82;10.60;;;;;;;8.75;81.75;99500.41;3606822;39;20088;-63
2022/01/04 06:40:21;;;;;;;12.18;10.43;;;;;;;8.76;80.88;99491.44;3608138;39;20058;-63
2022/01/04 06:42:46;;;;;;;12.35;10.55;;;;;;;8.78;81.60;99494.81;3606998;39;20080;-62
2022/01/04 06:45:14;;;;;;;13.48;10.52;;;;;;;8.80;81.15;99503.63;3606420;39;20091;-64
2022/01/04 06:47:39;;;;;;;14.05;10.15;;;;;;;8.78;81.72;99501.03;3610940;39;20077;-64
2022/01/04 06:50:06;;;;;;;14.18;10.27;;;;;;;8.77;80.92;99488.63;3605953;39;20067;-63
2022/01/04 06:52:32;;;;;;;14.88;10.80;;;;;;;8.76;81.00;99478.88;3606831;39;20051;-64
2022/01/04 06:54:57;;;;;;;14.15;11.55;;;;;;;8.76;80.87;99470.00;3605406;39;20379;-63
2022/01/04 06:57:24;;;;;;;15.02;11.40;;;;;;;8.73;80.89;99470.22;3604767;39;20055;-64
2022/01/04 06:59:49;;;;;;;14.10;11.27;;;;;;;8.74;81.23;99462.06;3605443;39;20077;-64
2022/01/04 07:02:15;;;;;;;14.70;10.85;;;;;;;8.52;81.76;99428.00;3606676;39;20047;-63
2022/01/04 07:04:40;;;;;;;16.73;11.30;;;;;;;8.71;80.88;99469.47;3605041;39;20051;-63
2022/01/04 07:07:06;;;;;;;14.90;11.38;;;;;;;8.71;81.33;99473.00;3605364;39;20397;-64
2022/01/04 07:09:32;;;;;;;15.30;11.35;;;;;;;8.67;81.31;99466.19;3604066;39;20468;-64
2022/01/04 07:11:57;;;;;;;14.02;11.95;;;;;;;8.42;81.05;99394.88;3604713;39;20074;-63
2022/01/04 07:14:23;;;;;;;14.73;11.52;;;;;;;8.72;81.68;99433.66;3605325;39;20124;-64
2022/01/04 07:16:49;;;;;;;15.63;12.27;;;;;;;8.73;82.23;99438.09;3604115;39;20108;-64
2022/01/04 07:19:15;;;;;;;17.45;12.80;;;;;;;8.74;81.98;99445.13;3606110;39;20282;-63
2022/01/04 07:21:41;;;;;;;17.50;12.80;;;;;;;8.73;81.75;99454.16;3604864;39;20087;-63
2022/01/04 07:24:07;;;;;;;17.33;12.55;;;;;;;8.69;81.93;99452.66;3611256;39;20051;-64
2022/01/04 07:26:32;;;;;;;15.07;12.25;;;;;;;8.72;81.34;99458.66;3598216;39;20352;-64
2022/01/04 07:28:58;;;;;;;16.88;12.70;;;;;;;8.44;81.93;99398.31;3606095;39;20051;-63
2022/01/04 07:31:24;;;;;;;18.88;13.88;;;;;;;8.65;81.33;99424.41;3609680;39;20401;-64
2022/01/04 07:33:50;;;;;;;17.48;12.55;;;;;;;8.70;81.90;99420.41;3607031;39;20085;-63
2022/01/04 07:36:16;;;;;;;16.10;12.13;;;;;;;8.72;81.97;99425.63;3609836;39;20054;-63
2022/01/04 07:38:42;;;;;;;18.58;13.57;;;;;;;8.70;81.44;99427.59;3607792;39;20059;-63
2022/01/04 07:41:08;;;;;;;19.25;12.95;;;;;;;8.69;81.14;99415.16;3609772;39;20051;-64
2022/01/04 07:43:34;;;;;;;19.27;12.95;;;;;;;8.69;81.21;99404.44;3609172;39;20067;-63
2022/01/04 07:46:00;;;;;;;18.60;12.65;;;;;;;8.68;82.04;99408.09;3608284;39;20070;-64
2022/01/04 07:48:25;;;;;;;18.70;13.48;;;;;;;8.67;81.16;99406.41;3607707;39;20051;-64
2022/01/04 07:50:55;;;;;;;19.00;12.90;;;;;;;8.65;81.89;99413.69;3608368;39;20051;-64
2022/01/04 07:53:22;;;;;;;20.08;13.85;;;;;;;8.66;81.37;99426.09;3607735;39;20035;-64
2022/01/04 07:55:48;;;;;;;19.52;13.68;;;;;;;8.67;82.04;99433.19;3606700;39;20100;-63
2022/01/04 07:58:14;;;;;;;20.50;14.32;;;;;;;8.68;81.21;99429.53;3608507;39;20047;-64
2022/01/04 08:00:39;;;;;;;23.27;13.20;;;;;;;8.73;81.90;99430.03;3607721;39;20505;-64
2022/01/04 08:03:06;;;;;;;21.10;13.80;;;;;;;8.71;80.97;99434.66;3604635;39;20061;-64
2022/01/04 08:05:33;;;;;;;21.85;14.27;;;;;;;8.72;80.96;99431.00;3604815;39;20460;-63
2022/01/04 08:07:59;;;;;;;21.27;14.40;;;;;;;8.74;81.62;99427.22;3604839;39;20127;-63
2022/01/04 08:10:25;;;;;;;18.70;14.20;;;;;;;8.71;80.82;99418.56;3604660;39;20055;-63
2022/01/04 08:12:50;;;;;;;18.58;13.82;;;;;;;8.78;80.77;99422.47;3604306;39;20051;-64
2022/01/04 08:15:16;;;;;;;21.63;13.60;;;;;;;8.67;80.96;99401.03;3604581;39;20051;-64
2022/01/04 08:17:42;;;;;;;23.48;13.27;;;;;;;8.75;80.66;99428.97;3606008;39;20055;-63
2022/01/04 08:20:09;;;;;;;20.48;14.27;;;;;;;8.75;80.58;99425.41;3604464;39;20294;-63
2022/01/04 08:22:35;;;;;;;19.67;13.82;;;;;;;8.75;81.31;99430.75;3604285;39;20087;-63
2022/01/04 08:25:08;;;;;;;19.88;15.00;;;;;;;8.75;81.28;99431.63;3604356;39;20063;-63
2022/01/04 08:27:34;;;;;;;21.00;14.35;;;;;;;8.63;80.75;99405.78;3604898;39;20047;-63
2022/01/04 08:30:01;;;;;;;21.63;14.30;;;;;;;8.82;81.22;99426.66;3605339;39;20123;-63
2022/01/04 08:32:27;;;;;;;18.23;14.25;;;;;;;8.70;80.88;99414.19;3607226;39;20051;-63
2022/01/04 08:34:53;;;;;;;22.02;14.63;;;;;;;8.84;80.74;99433.59;3601992;39;20064;-62
2022/01/04 08:37:19;;;;;;;23.13;14.85;;;;;;;8.83;81.11;99437.25;3605394;39;20066;-63
2022/01/04 08:39:46;;;;;;;22.15;14.50;;;;;;;8.86;80.40;99435.31;3607469;39;20572;-63
2022/01/04 08:42:12;;;;;;;23.58;15.27;;;;;;;8.88;80.97;99447.63;3605330;39;20048;-63
2022/01/04 08:44:39;;;;;;;22.73;14.85;;;;;;;8.86;80.84;99452.25;3604339;39;20071;-63
2022/01/04 08:47:10;;;;;;;22.30;14.13;;;;;;;8.87;80.17;99472.69;3607524;39;20700;-63
2022/01/04 08:49:38;;;;;;;19.40;13.88;;;;;;;8.75;80.36;99441.47;3606357;39;20056;-63
2022/01/04 08:52:06;;;;;;;22.88;14.40;;;;;;;8.88;80.20;99471.75;3606766;39;20082;-62
2022/01/04 08:54:32;;;;;;;20.55;14.00;;;;;;;8.88;80.06;99473.53;3610227;39;20075;-62
2022/01/04 08:56:58;;;;;;;21.45;14.23;;;;;;;8.88;80.06;99473.53;3604587;39;20071;-62
2022/01/04 08:59:25;;;;;;;20.35;13.95;;;;;;;8.87;80.54;99477.19;3607017;39;20462;-63
2022/01/04 09:01:51;;;;;;;21.70;14.88;;;;;;;8.88;80.67;99469.06;3606795;39;20055;-62
2022/01/04 09:04:16;;;;;;;20.27;14.02;;;;;;;8.86;80.10;99464.78;3604364;39;20085;-63
2022/01/04 09:06:42;;;;;;;22.02;14.57;;;;;;;8.85;80.55;99450.53;3604129;39;20059;-64
2022/01/04 09:09:08;;;;;;;20.80;14.98;;;;;;;8.89;80.70;99449.31;3605203;39;20458;-64
2022/01/04 09:11:34;;;;;;;24.60;15.05;;;;;;;8.95;80.36;99445.31;3606944;39;20096;-64
2022/01/04 09:19:27;;;;;;;19.75;14.85;;;;;;;8.98;80.04;99447.78;3606414;39;20046;-64
2022/01/04 09:21:54;;;;;;;23.40;15.38;;;;;;;8.95;80.13;99442.66;3607482;39;20047;-64
2022/01/04 09:24:21;;;;;;;23.65;15.52;;;;;;;8.99;80.21;99444.94;3607876;39;20386;-64
2022/01/04 09:26:47;;;;;;;25.60;16.40;;;;;;;8.92;80.26;99438.38;3595273;39;20372;-64
2022/01/04 09:29:17;;;;;;;23.23;15.77;;;;;;;9.05;80.21;99470.44;3605509;39;20043;-64
2022/01/04 09:31:43;;;;;;;22.05;16.05;;;;;;;9.05;79.37;99468.59;3606015;39;20055;-64
2022/01/04 09:34:09;;;;;;;24.58;16.23;;;;;;;9.06;80.07;99478.34;3608661;39;20120;-64
2022/01/04 09:36:38;;;;;;;25.77;17.02;;;;;;;9.07;79.13;99480.06;3609440;39;20052;-64
2022/01/04 09:39:10;;;;;;;24.55;16.48;;;;;;;9.07;79.43;99474.72;3606546;39;20152;-64
2022/01/04 09:41:36;;;;;;;23.15;16.33;;;;;;;9.07;80.17;99465.81;3613648;39;20051;-64
2022/01/04 09:44:03;;;;;;;24.67;16.95;;;;;;;9.14;79.74;99474.25;3609945;39;20343;-64
2022/01/04 09:46:29;;;;;;;26.80;17.48;;;;;;;9.15;79.16;99459.84;3610619;39;20065;-64
2022/01/04 09:48:57;;;;;;;25.25;18.88;;;;;;;9.18;79.96;99470.34;3605302;39;20047;-64
2022/01/04 09:51:26;;;;;;;28.05;18.33;;;;;;;9.18;78.88;99473.03;3610063;39;20148;-64
2022/01/04 09:53:51;;;;;;;23.65;16.98;;;;;;;9.20;79.17;99474.63;3607608;39;20050;-64
2022/01/04 09:56:17;;;;;;;29.73;19.70;;;;;;;9.23;79.22;99473.53;3611137;39;20047;-63
2022/01/04 09:58:43;;;;;;;27.60;17.92;;;;;;;9.26;79.43;99465.22;3610881;39;20382;-64
2022/01/04 10:01:32;;;;;;;26.90;18.30;;;;;;;9.25;79.43;99463.50;3610961;39;20321;-64
2022/01/04 10:03:58;;;;;;;29.00;17.77;;;;;;;9.20;79.33;99466.56;3605875;39;20110;-64
2022/01/04 10:06:25;;;;;;;29.80;19.40;;;;;;;9.25;78.64;99461.69;3607471;39;20054;-64
2022/01/04 10:09:11;;;;;;;30.80;19.60;;;;;;;9.29;79.03;99467.66;3610005;39;20050;-63
2022/01/04 10:11:42;;;;;;;31.52;19.92;;;;;;;9.30;78.89;99458.66;3606287;39;20043;-64
2022/01/04 10:14:35;;;;;;;34.47;20.95;;;;;;;9.34;78.99;99444.03;3606417;39;20043;-64
2022/01/04 10:17:07;;;;;;;29.77;19.07;;;;;;;9.34;79.09;99444.03;3607581;39;20105;-64
2022/01/04 10:19:36;;;;;;;31.10;20.85;;;;;;;9.37;78.58;99435.75;3603248;39;20112;-64
2022/01/04 10:22:35;;;;;;;30.50;19.70;;;;;;;9.23;79.04;99399.31;3606192;39;20071;-64
2022/01/04 10:25:00;;;;;;;28.35;19.33;;;;;;;9.49;79.05;99439.28;3587614;39;20506;-64
2022/01/04 10:27:43;;;;;;;30.15;21.05;;;;;;;9.49;78.10;99441.97;3606749;39;20060;-64
2022/01/04 10:30:44;;;;;;;29.27;20.73;;;;;;;9.50;78.53;99441.81;3608502;39;20065;-64
2022/01/04 10:33:21;;;;;;;31.08;19.90;;;;;;;9.51;78.29;99435.50;3580566;40;20052;-64
2022/01/04 10:35:53;;;;;;;31.65;21.77;;;;;;;9.55;78.11;99441.47;3600690;39;20164;-64
2022/01/04 10:38:27;;;;;;;31.65;21.23;;;;;;;9.57;78.34;99438.66;3608175;39;20055;-64
2022/01/04 10:41:10;;;;;;;;;;;;;;;9.59;77.47;99428.66;3606973;39;20047;-64
2022/01/04 10:43:44;;;;;;;32.35;20.23;;;;;;;9.61;78.53;99432.06;3606670;39;19939;-64
2022/01/04 10:46:15;;;;;;;29.40;19.42;;;;;;;9.61;78.39;99434.75;3612347;39;20091;-64
2022/01/04 10:48:45;;;;;;;30.45;20.95;;;;;;;9.64;78.21;99434.50;3609611;39;20428;-64
2022/01/04 10:51:21;;;;;;;31.15;21.33;;;;;;;9.66;77.43;99432.56;3604731;39;20136;-64
2022/01/04 10:54:00;;;;;;;28.55;20.63;;;;;;;9.66;77.23;99428.03;3606127;39;20050;-64
2022/01/04 10:56:31;;;;;;;35.70;22.15;;;;;;;9.68;77.49;99427.94;3607196;39;20129;-64
2022/01/04 10:59:03;;;;;;;30.17;20.77;;;;;;;9.67;77.54;99429.78;3605559;39;20101;-64
2022/01/04 11:01:39;;;;;;;31.25;21.20;;;;;;;9.68;77.61;99435.97;3609893;39;20087;-64
2022/01/04 11:04:20;;;;;;;29.33;21.30;;;;;;;9.67;78.08;99420.84;3606549;39;20131;-64
2022/01/04 11:06:49;;;;;;;30.80;22.17;;;;;;;9.72;77.41;99426.69;3606206;39;20087;-64
2022/01/04 11:09:16;;;;;;;31.52;22.13;;;;;;;9.72;77.62;99421.34;3609802;39;20047;-64
2022/01/04 11:11:42;;;;;;;33.03;22.13;;;;;;;9.74;76.96;99416.72;3604654;39;20047;-64
2022/01/04 11:14:12;;;;;;;30.95;21.95;;;;;;;9.77;76.75;99419.16;3607302;39;20047;-64
2022/01/04 11:16:39;;;;;;;29.83;21.42;;;;;;;9.56;77.34;99377.94;3605738;39;20289;-64
2022/01/04 11:19:07;;;;;;;31.40;22.52;;;;;;;9.77;77.34;99413.78;3606826;39;20043;-64
2022/01/04 11:21:44;;;;;;;31.88;22.15;;;;;;;9.81;77.31;99414.38;3604970;39;20055;-64
2022/01/04 11:24:16;;;;;;;29.17;22.27;;;;;;;9.79;77.32;99424.38;3611527;39;20362;-64
2022/01/04 11:26:45;;;;;;;30.98;21.92;;;;;;;9.78;77.74;99431.56;3608387;39;20375;-63
2022/01/04 11:29:14;;;;;;;31.48;22.05;;;;;;;9.82;77.47;99424.97;3608866;39;20063;-64
2022/01/04 11:32:02;;;;;;;28.30;21.77;;;;;;;9.81;77.07;99423.28;3599389;39;20049;-63
2022/01/04 11:35:21;;;;;;;33.03;22.08;;;;;;;9.82;76.89;99424.13;3607806;39;20367;-64
2022/01/04 11:37:56;;;;;;;30.48;22.50;;;;;;;9.81;77.69;99434.00;3608102;39;20120;-64
2022/01/04 11:40:36;;;;;;;31.63;22.02;;;;;;;9.82;76.99;99441.06;3601177;39;20167;-64
2022/01/04 11:43:04;;;;;;;30.45;22.75;;;;;;;9.79;77.06;99441.31;3605585;39;20111;-65
2022/01/04 11:45:48;;;;;;;33.92;23.73;;;;;;;9.56;77.95;99426.22;3609365;39;20055;-63